createdAt,value
2022-10-29T00:00:04.604Z,11.30
2022-10-29T00:02:35.325Z,11.36
2022-10-29T00:05:02.240Z,11.53
2022-10-29T00:07:29.123Z,11.60
2022-10-29T00:09:56.041Z,11.73
2022-10-29T00:12:22.879Z,11.61
2022-10-29T00:14:49.835Z,11.42
2022-10-29T00:17:16.675Z,11.52
2022-10-29T00:19:43.535Z,11.58
2022-10-29T00:22:10.401Z,11.33
2022-10-29T00:24:37.263Z,11.26
2022-10-29T00:27:04.242Z,11.20
2022-10-29T00:29:31.175Z,10.93
2022-10-29T00:31:58.204Z,10.77
2022-10-29T00:34:25.198Z,10.34
2022-10-29T00:36:52.079Z,10.13
2022-10-29T00:39:19.040Z,10.38
2022-10-29T00:41:46.025Z,10.41
2022-10-29T00:44:15.621Z,10.11
2022-10-29T00:46:46.609Z,9.97
2022-10-29T00:49:15.472Z,10.14
2022-10-29T00:51:43.975Z,10.25
2022-10-29T00:54:13.304Z,10.53
2022-10-29T00:56:49.006Z,10.46
2022-10-29T00:59:17.384Z,10.43
2022-10-29T01:01:46.946Z,10.50
2022-10-29T01:04:14.097Z,10.59
2022-10-29T01:06:47.276Z,10.46
2022-10-29T01:09:14.388Z,10.45
2022-10-29T01:11:44.046Z,10.57
2022-10-29T01:14:42.674Z,10.35
2022-10-29T01:17:23.572Z,10.46
2022-10-29T01:20:09.107Z,10.50
2022-10-29T01:23:20.182Z,10.42
2022-10-29T01:26:11.365Z,10.50
2022-10-29T01:28:53.019Z,10.43
2022-10-29T01:31:49.158Z,10.57
2022-10-29T01:34:22.143Z,10.35
2022-10-29T01:36:58.593Z,10.29
2022-10-29T01:39:49.895Z,9.99
2022-10-29T01:42:19.466Z,9.64
2022-10-29T01:45:12.265Z,9.84
2022-10-29T01:47:44.652Z,10.38
2022-10-29T01:50:16.322Z,10.33
2022-10-29T01:52:44.425Z,9.84
2022-10-29T01:55:11.268Z,10.13
2022-10-29T01:57:39.439Z,10.24
2022-10-29T02:00:13.049Z,10.33
2022-10-29T02:03:07.902Z,10.26
2022-10-29T02:06:20.832Z,9.95
2022-10-29T02:09:05.380Z,9.77
2022-10-29T02:11:54.718Z,9.66
2022-10-29T02:14:30.154Z,9.63
2022-10-29T02:16:58.392Z,9.41
2022-10-29T02:19:31.112Z,9.09
2022-10-29T02:21:58.312Z,9.12
2022-10-29T02:24:25.872Z,9.03
2022-10-29T02:26:53.248Z,8.98
2022-10-29T02:29:20.296Z,8.88
2022-10-29T02:31:47.157Z,8.68
2022-10-29T02:34:14.157Z,8.82
2022-10-29T02:36:40.995Z,8.79
2022-10-29T02:39:07.908Z,9.03
2022-10-29T02:41:34.736Z,9.22
2022-10-29T02:44:01.752Z,9.17
2022-10-29T02:46:30.329Z,9.13
2022-10-29T02:48:57.329Z,9.04
2022-10-29T02:51:24.186Z,8.78
2022-10-29T02:53:51.154Z,8.40
2022-10-29T02:56:18.025Z,8.16
2022-10-29T02:58:44.866Z,8.32
2022-10-29T03:01:11.869Z,8.31
2022-10-29T03:03:38.835Z,8.14
2022-10-29T03:06:13.071Z,8.22
2022-10-29T03:08:40.139Z,8.38
2022-10-29T03:11:07.057Z,8.40
2022-10-29T03:13:34.000Z,8.35
2022-10-29T03:16:00.952Z,8.63
2022-10-29T03:18:27.934Z,8.67
2022-10-29T03:20:54.761Z,8.63
2022-10-29T03:23:22.355Z,8.79
2022-10-29T03:25:55.897Z,8.47
2022-10-29T03:28:25.283Z,8.05
2022-10-29T03:30:52.317Z,8.30
2022-10-29T03:33:19.225Z,8.35
2022-10-29T03:35:46.258Z,8.32
2022-10-29T03:38:13.143Z,7.94
2022-10-29T03:40:39.963Z,7.59
2022-10-29T03:43:06.815Z,7.63
2022-10-29T03:45:33.751Z,7.28
2022-10-29T03:48:00.599Z,7.01
2022-10-29T03:50:27.448Z,6.88
2022-10-29T03:52:54.323Z,6.86
2022-10-29T03:55:21.151Z,6.82
2022-10-29T03:57:48.017Z,6.88
2022-10-29T04:00:15.506Z,6.89
2022-10-29T04:02:42.855Z,6.90
2022-10-29T04:05:09.763Z,6.89
2022-10-29T04:07:36.684Z,6.97
2022-10-29T04:10:04.726Z,7.23
2022-10-29T04:12:31.580Z,6.86
2022-10-29T04:14:58.508Z,6.75
2022-10-29T04:17:25.477Z,6.62
2022-10-29T04:19:52.380Z,6.42
2022-10-29T04:30:43.820Z,6.11
2022-10-29T04:33:10.755Z,6.22
2022-10-29T04:35:37.599Z,6.26
2022-10-29T04:38:11.838Z,6.26
2022-10-29T04:40:39.091Z,6.22
2022-10-29T04:43:06.042Z,6.39
2022-10-29T04:45:33.043Z,6.76
2022-10-29T04:48:04.653Z,7.23
2022-10-29T04:50:32.745Z,7.30
2022-10-29T04:53:00.888Z,7.29
2022-10-29T04:55:28.649Z,7.12
2022-10-29T04:57:55.832Z,7.20
2022-10-29T05:00:23.788Z,7.26
2022-10-29T05:02:52.020Z,7.73
2022-10-29T05:05:20.523Z,8.07
2022-10-29T05:07:47.718Z,8.16
2022-10-29T05:10:15.426Z,8.37
2022-10-29T05:12:42.312Z,8.47
2022-10-29T05:15:09.528Z,8.90
2022-10-29T05:17:39.253Z,8.89
2022-10-29T05:20:06.716Z,8.74
2022-10-29T05:22:33.580Z,9.02
2022-10-29T05:25:00.412Z,8.63
2022-10-29T05:27:27.236Z,8.14
2022-10-29T05:29:54.282Z,8.15
2022-10-29T05:32:21.205Z,8.42
2022-10-29T05:34:48.083Z,8.21
2022-10-29T05:37:14.979Z,8.22
2022-10-29T05:39:41.876Z,8.37
2022-10-29T05:42:08.757Z,8.49
2022-10-29T05:44:35.589Z,8.55
2022-10-29T05:47:02.475Z,8.49
2022-10-29T05:49:29.333Z,8.78
2022-10-29T05:51:56.195Z,8.79
2022-10-29T05:54:23.150Z,9.13
2022-10-29T05:56:50.075Z,9.38
2022-10-29T05:59:16.973Z,9.98
2022-10-29T06:01:44.058Z,10.27
2022-10-29T06:04:11.088Z,10.07
2022-10-29T06:06:38.945Z,10.09
2022-10-29T06:09:06.016Z,10.98
2022-10-29T06:11:32.900Z,11.19
2022-10-29T06:13:59.773Z,11.47
2022-10-29T06:16:26.628Z,11.13
2022-10-29T06:18:53.634Z,10.78
2022-10-29T06:21:20.479Z,10.58
2022-10-29T06:23:47.351Z,10.70
2022-10-29T06:26:14.264Z,10.60
2022-10-29T06:28:41.168Z,10.49
2022-10-29T06:31:08.017Z,10.40
2022-10-29T06:33:35.087Z,9.92
2022-10-29T06:36:01.942Z,9.80
2022-10-29T06:38:28.913Z,9.60
2022-10-29T06:40:55.980Z,9.41
2022-10-29T06:43:22.975Z,9.79
2022-10-29T06:45:50.262Z,10.24
2022-10-29T06:48:21.705Z,10.57
2022-10-29T06:50:50.243Z,10.23
2022-10-29T06:53:17.640Z,10.61
2022-10-29T06:55:44.598Z,10.82
2022-10-29T06:58:14.263Z,11.02
2022-10-29T07:00:42.547Z,11.01
2022-10-29T07:03:13.351Z,11.45
2022-10-29T07:05:40.263Z,11.13
2022-10-29T07:08:07.217Z,10.94
2022-10-29T07:10:34.461Z,10.56
2022-10-29T07:13:01.720Z,10.53
2022-10-29T07:15:30.785Z,11.20
2022-10-29T07:18:00.593Z,11.42
2022-10-29T07:20:29.779Z,12.09
2022-10-29T07:22:59.429Z,12.92
2022-10-29T07:25:26.737Z,12.70
2022-10-29T07:27:54.009Z,12.02
2022-10-29T07:30:21.638Z,12.60
2022-10-29T07:32:48.553Z,13.17
2022-10-29T07:35:15.526Z,13.13
2022-10-29T07:37:42.376Z,14.18
2022-10-29T07:40:10.002Z,14.08
2022-10-29T07:42:36.893Z,13.57
2022-10-29T07:45:04.061Z,14.80
2022-10-29T07:47:30.927Z,15.40
2022-10-29T07:49:57.751Z,16.52
2022-10-29T07:52:24.667Z,17.15
2022-10-29T07:54:51.496Z,16.98
2022-10-29T07:57:18.370Z,16.15
2022-10-29T07:59:46.927Z,15.82
2022-10-29T08:02:13.818Z,16.14
2022-10-29T08:04:40.723Z,15.63
2022-10-29T08:07:07.726Z,15.52
2022-10-29T08:09:34.589Z,16.20
2022-10-29T08:12:01.666Z,16.30
2022-10-29T08:14:28.511Z,16.04
2022-10-29T08:16:55.337Z,15.77
2022-10-29T08:19:22.921Z,14.97
2022-10-29T08:21:49.802Z,14.73
2022-10-29T08:24:16.722Z,14.81
2022-10-29T08:26:43.682Z,16.40
2022-10-29T08:29:10.522Z,17.56
2022-10-29T08:31:37.361Z,20.31
2022-10-29T08:34:08.499Z,21.61
2022-10-29T08:36:37.731Z,21.85
2022-10-29T08:39:04.682Z,22.46
2022-10-29T08:42:00.751Z,22.74
2022-10-29T08:44:45.687Z,23.84
2022-10-29T08:47:23.524Z,25.08
2022-10-29T08:49:59.343Z,24.35
2022-10-29T08:52:34.259Z,24.81
2022-10-29T08:55:18.921Z,24.24
2022-10-29T08:57:50.353Z,25.15
2022-10-29T09:00:23.376Z,25.28
2022-10-29T09:02:58.950Z,25.84
2022-10-29T09:05:32.415Z,26.12
2022-10-29T09:08:02.577Z,27.29
2022-10-29T09:10:51.466Z,27.92
2022-10-29T09:13:21.866Z,28.00
2022-10-29T09:16:12.648Z,28.97
2022-10-29T09:18:57.141Z,28.98
2022-10-29T09:21:39.876Z,27.30
2022-10-29T09:24:12.807Z,27.63
2022-10-29T09:27:11.840Z,30.02
2022-10-29T09:30:01.819Z,29.05
2022-10-29T09:32:38.660Z,29.29
2022-10-29T09:35:17.041Z,29.16
2022-10-29T09:37:52.572Z,27.36
2022-10-29T09:40:36.109Z,25.95
2022-10-29T09:43:21.091Z,25.45
2022-10-29T09:46:13.752Z,25.87
2022-10-29T09:49:15.743Z,26.95
2022-10-29T09:52:06.107Z,27.83
2022-10-29T09:54:34.067Z,27.01
2022-10-29T09:57:04.871Z,27.17
2022-10-29T09:59:42.555Z,27.43
2022-10-29T10:02:30.073Z,28.56
2022-10-29T10:05:21.546Z,26.92
2022-10-29T10:08:04.341Z,28.28
2022-10-29T10:10:32.162Z,26.89
2022-10-29T10:13:04.445Z,26.12
2022-10-29T10:15:35.121Z,25.17
2022-10-29T10:18:15.653Z,26.39
2022-10-29T10:20:45.680Z,26.48
2022-10-29T10:23:44.244Z,27.05
2022-10-29T10:26:31.840Z,27.28
2022-10-29T10:29:21.336Z,27.93
2022-10-29T10:31:55.164Z,27.46
2022-10-29T10:34:24.597Z,26.49
2022-10-29T10:37:07.414Z,26.77
2022-10-29T10:39:48.712Z,25.79
2022-10-29T10:42:39.574Z,26.41
2022-10-29T10:45:35.109Z,27.39
2022-10-29T10:48:02.819Z,25.75
2022-10-29T10:50:32.980Z,25.04
2022-10-29T10:53:21.102Z,23.96
2022-10-29T10:55:53.441Z,23.29
2022-10-29T10:58:23.939Z,24.26
2022-10-29T11:01:06.526Z,24.16
2022-10-29T11:03:48.848Z,24.12
2022-10-29T11:06:19.073Z,24.84
2022-10-29T11:08:54.065Z,25.14
2022-10-29T11:11:27.583Z,24.67
2022-10-29T11:14:00.943Z,23.59
2022-10-29T11:16:53.326Z,24.38
2022-10-29T11:19:26.794Z,24.66
2022-10-29T11:22:23.178Z,23.83
2022-10-29T11:24:50.009Z,23.28
2022-10-29T11:27:32.737Z,23.13
2022-10-29T11:30:05.853Z,23.48
2022-10-29T11:32:45.269Z,24.14
2022-10-29T11:35:18.062Z,23.85
2022-10-29T11:38:01.310Z,23.66
2022-10-29T11:41:04.953Z,24.18
2022-10-29T11:43:33.855Z,24.27
2022-10-29T11:46:21.046Z,23.49
2022-10-29T11:48:56.895Z,23.48
2022-10-29T11:51:52.013Z,23.43
2022-10-29T11:54:39.170Z,23.54
2022-10-29T11:57:17.807Z,22.90
2022-10-29T12:00:02.929Z,22.98
2022-10-29T12:03:11.654Z,22.36
2022-10-29T12:05:51.196Z,22.25
2022-10-29T12:08:42.858Z,21.65
2022-10-29T12:11:21.081Z,22.05
2022-10-29T12:14:16.015Z,21.94
2022-10-29T12:17:04.251Z,21.48
2022-10-29T12:19:43.302Z,20.87
2022-10-29T12:22:18.148Z,21.45
2022-10-29T12:24:50.856Z,21.39
2022-10-29T12:27:40.204Z,20.88
2022-10-29T12:30:10.686Z,20.75
2022-10-29T12:32:52.675Z,20.91
2022-10-29T12:35:49.149Z,21.15
2022-10-29T12:38:23.579Z,21.26
2022-10-29T12:41:00.872Z,21.62
2022-10-29T12:43:31.627Z,21.48
2022-10-29T12:46:19.548Z,22.07
2022-10-29T12:49:15.292Z,22.58
2022-10-29T12:51:59.902Z,22.33
2022-10-29T12:54:47.644Z,21.42
2022-10-29T12:57:14.577Z,21.25
2022-10-29T12:59:43.089Z,21.37
2022-10-29T13:02:22.683Z,21.10
2022-10-29T13:05:09.886Z,21.16
2022-10-29T13:07:45.703Z,21.85
2022-10-29T13:10:25.230Z,21.32
2022-10-29T13:13:12.299Z,21.10
2022-10-29T13:16:03.073Z,21.04
2022-10-29T13:18:56.638Z,20.96
2022-10-29T13:22:14.473Z,20.46
2022-10-29T13:24:41.576Z,20.63
2022-10-29T13:27:17.606Z,20.11
2022-10-29T13:30:11.345Z,19.91
2022-10-29T13:32:39.289Z,19.98
2022-10-29T13:35:26.146Z,20.56
2022-10-29T13:38:09.409Z,18.94
2022-10-29T13:40:40.237Z,18.89
2022-10-29T13:43:17.425Z,18.64
2022-10-29T13:46:20.996Z,19.11
2022-10-29T13:48:50.270Z,19.03
2022-10-29T13:51:24.726Z,18.49
2022-10-29T13:53:54.695Z,18.39
2022-10-29T13:56:37.994Z,18.14
2022-10-29T13:59:13.648Z,18.04
2022-10-29T14:01:48.770Z,18.06
2022-10-29T14:04:34.243Z,17.59
2022-10-29T14:07:06.518Z,17.57
2022-10-29T14:09:49.544Z,17.13
2022-10-29T14:12:22.530Z,17.07
2022-10-29T14:15:14.560Z,17.06
2022-10-29T14:17:42.146Z,17.07
2022-10-29T14:20:24.800Z,17.07
2022-10-29T14:22:51.861Z,17.03
2022-10-29T14:25:24.943Z,16.75
2022-10-29T14:28:10.483Z,16.32
2022-10-29T14:30:37.515Z,16.26
2022-10-29T14:33:27.733Z,16.19
2022-10-29T14:36:07.115Z,16.28
2022-10-29T14:38:41.308Z,16.05
2022-10-29T14:41:09.260Z,15.91
2022-10-29T14:43:36.787Z,15.76
2022-10-29T14:46:30.924Z,15.78
2022-10-29T14:49:03.230Z,15.64
2022-10-29T14:51:47.862Z,15.24
2022-10-29T14:54:22.715Z,15.23
2022-10-29T14:56:56.078Z,15.22
2022-10-29T14:59:29.167Z,14.90
2022-10-29T15:02:05.733Z,15.02
2022-10-29T15:04:56.461Z,15.05
2022-10-29T15:07:23.690Z,14.93
2022-10-29T15:10:02.446Z,14.98
2022-10-29T15:12:38.117Z,14.85
2022-10-29T15:15:23.406Z,14.53
2022-10-29T15:18:00.093Z,14.73
2022-10-29T15:20:57.911Z,14.86
2022-10-29T15:23:29.548Z,14.96
2022-10-29T15:26:05.705Z,14.86
2022-10-29T15:28:40.031Z,14.59
2022-10-29T15:31:07.887Z,14.59
2022-10-29T15:33:37.304Z,14.36
2022-10-29T15:36:05.799Z,14.26
2022-10-29T15:38:35.388Z,14.32
2022-10-29T15:41:08.124Z,14.25
2022-10-29T15:43:48.865Z,14.35
2022-10-29T15:46:22.630Z,14.58
2022-10-29T15:48:49.612Z,14.59
2022-10-29T15:51:16.929Z,14.52
2022-10-29T15:53:43.835Z,14.46
2022-10-29T15:56:13.313Z,14.40
2022-10-29T15:58:41.027Z,14.69
2022-10-29T16:01:08.753Z,14.86
2022-10-29T16:03:39.408Z,15.02
2022-10-29T16:06:07.652Z,15.21
2022-10-29T16:08:44.627Z,15.24
2022-10-29T16:11:20.172Z,15.31
2022-10-29T16:13:51.843Z,15.25
2022-10-29T16:16:24.189Z,15.27
2022-10-29T16:18:51.568Z,15.37
2022-10-29T16:21:26.535Z,15.27
2022-10-29T16:23:54.124Z,15.43
2022-10-29T16:26:25.579Z,15.37
2022-10-29T16:28:53.443Z,15.25
2022-10-29T16:31:28.746Z,15.27
2022-10-29T16:33:57.551Z,15.21
2022-10-29T16:36:25.052Z,15.26
2022-10-29T16:38:51.923Z,15.26
2022-10-29T16:41:20.548Z,15.49
2022-10-29T16:43:48.259Z,15.78
2022-10-29T16:46:15.498Z,15.51
2022-10-29T16:48:42.466Z,15.26
2022-10-29T16:51:09.498Z,15.50
2022-10-29T16:53:36.447Z,15.66
2022-10-29T16:56:03.955Z,15.84
2022-10-29T16:58:31.106Z,15.87
2022-10-29T17:01:10.619Z,15.86
2022-10-29T17:03:39.216Z,15.93
2022-10-29T17:06:08.501Z,15.92
2022-10-29T17:08:36.560Z,15.70
2022-10-29T17:11:06.133Z,15.16
2022-10-29T17:13:34.340Z,15.07
2022-10-29T17:16:01.358Z,15.01
2022-10-29T17:18:28.248Z,15.19
2022-10-29T17:20:59.322Z,15.05
2022-10-29T17:23:26.919Z,14.98
2022-10-29T17:25:58.070Z,14.97
2022-10-29T17:28:26.559Z,14.88
2022-10-29T17:30:53.883Z,14.81
2022-10-29T17:33:21.000Z,14.78
2022-10-29T17:35:47.958Z,14.52
2022-10-29T17:38:14.849Z,14.41
2022-10-29T17:40:44.428Z,14.46
2022-10-29T17:43:11.368Z,14.74
2022-10-29T17:45:38.408Z,14.95
2022-10-29T17:48:05.497Z,15.06
2022-10-29T17:50:32.442Z,15.06
2022-10-29T17:52:59.512Z,15.25
2022-10-29T17:55:26.417Z,15.19
2022-10-29T17:57:53.336Z,15.03
2022-10-29T18:00:20.441Z,14.90
2022-10-29T18:02:53.384Z,14.59
2022-10-29T18:05:20.402Z,14.45
2022-10-29T18:07:47.287Z,14.36
2022-10-29T18:10:14.303Z,14.59
2022-10-29T18:12:41.157Z,14.63
2022-10-29T18:15:08.786Z,14.65
2022-10-29T18:17:36.676Z,14.54
2022-10-29T18:20:04.657Z,14.32
2022-10-29T18:22:31.507Z,14.27
2022-10-29T18:24:58.705Z,14.15
2022-10-29T18:27:25.880Z,14.27
2022-10-29T18:29:52.872Z,14.08
2022-10-29T18:32:20.116Z,13.85
2022-10-29T18:34:47.045Z,14.07
2022-10-29T18:37:13.988Z,14.11
2022-10-29T18:39:40.989Z,14.20
2022-10-29T18:42:07.968Z,14.21
2022-10-29T18:44:35.078Z,14.24
2022-10-29T18:47:01.928Z,14.08
2022-10-29T18:49:28.892Z,14.02
2022-10-29T18:51:55.763Z,13.92
2022-10-29T18:54:22.727Z,13.80
2022-10-29T18:56:49.693Z,13.94
2022-10-29T18:59:16.627Z,13.79
2022-10-29T19:01:43.637Z,13.47
2022-10-29T19:04:14.665Z,13.60
2022-10-29T19:06:41.651Z,13.57
2022-10-29T19:09:10.856Z,13.70
2022-10-29T19:11:38.079Z,13.69
2022-10-29T19:14:07.826Z,13.52
2022-10-29T19:16:34.999Z,13.66
2022-10-29T19:21:35.505Z,13.85
2022-10-29T19:24:02.968Z,13.87
2022-10-29T19:26:32.375Z,13.87
2022-10-29T19:29:01.200Z,13.67
2022-10-29T19:31:29.883Z,13.67
2022-10-29T19:34:01.856Z,13.93
2022-10-29T19:36:30.112Z,14.17
2022-10-29T19:38:57.433Z,14.10
2022-10-29T19:41:24.859Z,14.05
2022-10-29T19:43:51.800Z,14.24
2022-10-29T19:46:24.629Z,13.74
2022-10-29T19:48:53.691Z,13.51
2022-10-29T19:51:21.922Z,13.74
2022-10-29T19:53:51.499Z,13.89
2022-10-29T19:56:19.882Z,13.91
2022-10-29T19:58:47.098Z,13.64
2022-10-29T20:01:16.627Z,13.40
2022-10-29T20:03:44.728Z,13.82
2022-10-29T20:06:12.255Z,13.94
2022-10-29T20:08:39.457Z,13.91
2022-10-29T20:11:07.103Z,13.99
2022-10-29T20:13:34.131Z,13.95
2022-10-29T20:16:10.473Z,13.89
2022-10-29T20:18:38.449Z,13.75
2022-10-29T20:23:38.242Z,13.71
2022-10-29T20:26:06.237Z,13.76
2022-10-29T20:28:33.690Z,13.43
2022-10-29T20:31:17.148Z,13.18
2022-10-29T20:34:04.268Z,13.30
2022-10-29T20:36:32.447Z,13.64
2022-10-29T20:38:59.915Z,13.60
2022-10-29T20:41:27.520Z,13.51
2022-10-29T20:43:56.944Z,13.78
2022-10-29T20:46:24.644Z,13.45
2022-10-29T20:48:51.562Z,13.26
2022-10-29T20:51:18.435Z,13.35
2022-10-29T20:53:45.449Z,13.48
2022-10-29T20:56:15.935Z,13.52
2022-10-29T20:58:44.220Z,13.60
2022-10-29T21:01:13.329Z,13.63
2022-10-29T21:03:40.336Z,13.49
2022-10-29T21:06:15.680Z,13.09
2022-10-29T21:08:43.952Z,13.36
2022-10-29T21:11:12.715Z,13.56
2022-10-29T21:13:40.064Z,13.75
2022-10-29T21:16:10.768Z,13.62
2022-10-29T21:18:41.357Z,13.66
2022-10-29T21:21:09.289Z,13.73
2022-10-29T21:23:40.167Z,13.70
2022-10-29T21:26:10.968Z,13.72
2022-10-29T21:28:37.920Z,13.70
2022-10-29T21:31:05.180Z,13.74
2022-10-29T21:33:32.105Z,13.81
2022-10-29T21:35:59.491Z,13.62
2022-10-29T21:38:27.751Z,13.38
2022-10-29T21:40:54.988Z,13.27
2022-10-29T21:43:22.144Z,13.42
2022-10-29T21:45:50.801Z,13.33
2022-10-29T21:48:18.169Z,13.61
2022-10-29T21:50:45.068Z,13.66
2022-10-29T21:53:12.116Z,13.40
2022-10-29T21:55:39.455Z,13.08
2022-10-29T21:58:07.661Z,12.82
2022-10-29T22:00:34.684Z,12.71
2022-10-29T22:03:04.455Z,12.21
2022-10-29T22:05:31.921Z,12.26
2022-10-29T22:07:59.334Z,12.03
2022-10-29T22:10:26.610Z,11.69
2022-10-29T22:12:53.454Z,11.35
2022-10-29T22:15:20.343Z,11.18
2022-10-29T22:17:47.321Z,11.41
2022-10-29T22:20:14.240Z,11.48
2022-10-29T22:22:41.207Z,11.54
2022-10-29T22:25:08.468Z,11.49
2022-10-29T22:27:35.491Z,11.35
2022-10-29T22:30:02.632Z,10.71
2022-10-29T22:32:30.046Z,10.66
2022-10-29T22:34:57.048Z,10.80
2022-10-29T22:37:24.012Z,11.00
2022-10-29T22:39:50.833Z,11.06
2022-10-29T22:42:17.827Z,11.12
2022-10-29T22:44:44.829Z,11.28
2022-10-29T22:47:11.655Z,11.35
2022-10-29T22:49:38.510Z,11.31
2022-10-29T22:52:05.368Z,11.14
2022-10-29T22:54:32.255Z,11.02
2022-10-29T22:56:59.123Z,11.14
2022-10-29T22:59:26.022Z,10.95
2022-10-29T23:01:53.048Z,10.84
2022-10-29T23:04:20.057Z,10.79
2022-10-29T23:06:47.934Z,10.85
2022-10-29T23:09:14.852Z,11.17
2022-10-29T23:11:41.708Z,11.33
2022-10-29T23:14:08.612Z,11.50
2022-10-29T23:16:36.532Z,10.72
2022-10-29T23:19:05.607Z,10.56
2022-10-29T23:21:32.991Z,10.69
2022-10-29T23:24:00.181Z,10.72
2022-10-29T23:26:27.652Z,10.88
2022-10-29T23:28:54.739Z,10.99
2022-10-29T23:31:24.470Z,10.84
2022-10-29T23:33:53.944Z,10.77
2022-10-29T23:36:22.599Z,10.54
2022-10-29T23:38:55.047Z,10.32
2022-10-29T23:41:22.055Z,10.48
2022-10-29T23:43:49.001Z,10.66
2022-10-29T23:46:15.938Z,10.73
2022-10-29T23:48:42.914Z,10.81
2022-10-29T23:51:09.899Z,10.75
2022-10-29T23:53:36.795Z,10.74
2022-10-29T23:56:03.944Z,10.74
2022-10-29T23:58:30.814Z,10.94
